Terminal Aerodrome Forecast
Issued by NWS La Crosse, WI

Home | Current Version | Previous Version | Text Only | Print | Product List | Glossary On
Versions: 1 2 3 4 5 6 7 8 9 10 11 12 13 14 15 16 17 18 19 20 21 22 23 24
000
FTUS43 KARX 292320
TAFRST
TAF
KRST 292320Z 3000/3024 02006KT P6SM SKC
     FM300800 04006KT 3SM BR FEW005
     FM301300 04007KT P6SM SKC
     FM301600 04013KT P6SM BKN050
     FM301900 05013KT P6SM BKN030 OVC050=

USA.gov is the U.S. government's official web portal to all federal, state and local government web resources and services.